首页
METAR-TAF:

METAR-TAF

机场 :

朱諾, 阿拉斯加州, 美国

纬度: 58-21-17N, 经度: 134-34-34W, 海拔: 6米

当前天气观测

该预报发布于59分钟前的23:09 UTC
风速14节,风向
温度 7°C
湿度 100%
气压 1014 hPa
能見度: 4.8公里
少量云层高于700英尺
多云层高于3000英尺
阴天层高于3700英尺
小雨, 轻雾

METAR: PAJN 172309Z 10014KT 3SM -RA BR FEW007 BKN030 OVC037 07/07 A2993 RMK AO2 P0001 T00720067 $

时间: 15:08 (00:08 UTC)

预报

该预报发布于22分钟前的23:46 UTC
预报有效从18日的 00点(UTC)到 18日的 24点(UTC)
风速15节,风向
能見度: 8.0公里
少量云层高于700英尺
阴天层高于3000英尺
小雨, 轻雾
短暂存在
从 18日的 00点(UTC)到 18日的 04点(UTC)
能見度: 4.8公里
散云层高于700英尺
阴天层高于3000英尺
小雨, 轻雾
从 18日的 0600点(UTC)
风速8节,风向
能見度: 9.7公里
多云层高于1500英尺
阴天层高于3000英尺
轻雾, 附近有阵雨

TAF: PAJN 172346Z 1800/1824 10015KT 5SM -RA BR FEW007 OVC030 WS020/20025KT TEMPO 1800/1804 3SM -RA BR SCT007 OVC030 FM180600 10008KT 6SM BR VCSH BKN015 OVC030

超过4000个机场的气象观测和天气预报(METAR&TAF报告)。

可查询的气象台以黄色和红色小点在地图上表示。

将鼠标移到小点上方,可查看气象台名称。

然后点击查看天气观测和预报。

如需切换地图:点击带黑十字的绿色按钮放大地图;点击带横线的绿色按钮缩小地图;或者点击绿色箭头查看邻近地区的地图。


METAR-TAF: